This is the latest recevied weather packets stored in our database for station/object W4ZHA. If no packets are shown the sender has not sent any weather packets the latest 10 day(s).
| Time | Temp. | Humidity | Pressure | Rain* | Wind** | Luminosity | Snow |
|---|---|---|---|---|---|---|---|
| 1777741691 | 17.22° C | 51% | 1015.8 hPa | 0 mm | - | 468 W/m² | - |
| 1777741386 | 17.22° C | 52% | 1015.8 hPa | 0 mm | - | 400 W/m² | - |
| 1777741083 | 18.33° C | 55% | 1015.8 hPa | 0 mm | - | 537 W/m² | - |
| 1777740780 | 17.22° C | 54% | 1015.8 hPa | 0 mm | - | 267 W/m² | - |
| 1777740477 | 17.22° C | 54% | 1015.8 hPa | 0 mm | - | 298 W/m² | - |
| 1777740174 | 16.67° C | 55% | 1015.8 hPa | 0 mm | - | 302 W/m² | - |
| 1777739869 | 16.67° C | 56% | 1016.1 hPa | 0 mm | - | 435 W/m² | - |
| 1777739567 | 16.67° C | 56% | 1016.1 hPa | 0 mm | - | 235 W/m² | - |
| 1777739264 | 16.11° C | 56% | 1016.5 hPa | 0 mm | - | 219 W/m² | - |
| 1777738960 | 16.67° C | 56% | 1016.5 hPa | 0 mm | - | 372 W/m² | - |
| 1777738658 | 16.67° C | 56% | 1016.5 hPa | 0 mm | - | 231 W/m² | - |
| 1777738354 | 16.67° C | 56% | 1016.5 hPa | 0 mm | - | 274 W/m² | - |
| 1777738052 | 16.11° C | 51% | 1016.5 hPa | 0 mm | - | 254 W/m² | - |
| 1777737751 | 15.56° C | 54% | 1016.5 hPa | 0 mm | - | 227 W/m² | - |
| 1777737449 | 15° C | 56% | 1016.5 hPa | 0 mm | - | 222 W/m² | - |
| 1777737147 | 15° C | 55% | 1016.5 hPa | 0 mm | - | 216 W/m² | - |
| 1777736842 | 15° C | 56% | 1016.1 hPa | 0 mm | - | 207 W/m² | - |
| 1777736229 | 15° C | 55% | 1016.1 hPa | 0 mm | - | 198 W/m² | - |
| 1777735926 | 15° C | 55% | 1016.1 hPa | 0 mm | - | 199 W/m² | - |
| 1777735623 | 15° C | 56% | 1016.1 hPa | 0 mm | - | 179 W/m² | - |
| 1777735321 | 15° C | 56% | 1016.1 hPa | 0 mm | - | 173 W/m² | - |
| 1777735018 | 14.44° C | 56% | 1016.1 hPa | 0 mm | - | 180 W/m² | - |
| 1777734715 | 15° C | 56% | 1015.8 hPa | 0 mm | - | 179 W/m² | - |
| 1777734412 | 15° C | 54% | 1016.1 hPa | 0 mm | - | 176 W/m² | - |
| 1777734108 | 15° C | 55% | 1015.8 hPa | 0 mm | - | 202 W/m² | - |
* Rain latest hour (hover to see other rain measurements)
** Current wind speed in m/s (hover to see current wind gust speed)